Time;durP1;ratioP1;P1;durP2;ratioP2;P2;SDS_P1;SDS_P2;PMS_P1;PMS_P2;Temp;Humidity;BMP_temperature;BMP_pressure;BME280_temperature;BME280_humidity;BME280_pressure;Samples;Min_cycle;Max_cycle;Signal;HPM_P1;HPM_P2
2022/09/23 00:00:40;;;;;;;36.87;21.77;;;;;;;;;;4341901;33;20442;-52
2022/09/23 00:03:07;;;;;;;34.87;21.90;;;;;;;;;;4340854;33;20259;-53
2022/09/23 00:05:34;;;;;;;35.53;22.13;;;;;;;;;;4340988;33;20249;-52
2022/09/23 00:08:02;;;;;;;31.17;21.83;;;;;;;;;;4341400;33;20328;-52
2022/09/23 00:10:30;;;;;;;34.87;21.53;;;;;;;;;;4341074;33;20317;-54
2022/09/23 00:12:58;;;;;;;29.60;20.67;;;;;;;;;;4341113;33;20288;-54
2022/09/23 00:15:29;;;;;;;30.37;19.40;;;;;;;;;;4341221;33;20325;-53
2022/09/23 00:17:57;;;;;;;36.50;18.63;;;;;;;;;;4341040;33;20234;-53
2022/09/23 00:20:24;;;;;;;25.47;17.13;;;;;;;;;;4341367;33;21109;-53
2022/09/23 00:22:52;;;;;;;21.60;15.33;;;;;;;;;;4341176;33;20246;-53
2022/09/23 00:25:19;;;;;;;26.83;15.03;;;;;;;;;;4341352;33;20218;-53
2022/09/23 00:27:46;;;;;;;24.37;14.63;;;;;;;;;;4340888;33;20245;-54
2022/09/23 00:30:13;;;;;;;24.07;14.50;;;;;;;;;;4341087;33;20231;-53
2022/09/23 00:32:41;;;;;;;25.60;15.47;;;;;;;;;;4343362;33;20243;-53
2022/09/23 00:35:09;;;;;;;22.53;15.13;;;;;;;;;;4343956;33;20307;-51
2022/09/23 00:37:36;;;;;;;22.50;15.93;;;;;;;;;;4344020;33;20683;-52
2022/09/23 00:40:03;;;;;;;20.13;13.40;;;;;;;;;;4344118;33;20226;-53
2022/09/23 00:42:30;;;;;;;24.33;15.67;;;;;;;;;;4343801;33;20671;-52
2022/09/23 00:44:59;;;;;;;19.23;12.80;;;;;;;;;;4343215;32;20308;-52
2022/09/23 00:47:32;;;;;;;21.47;12.70;;;;;;;;;;4343419;33;20281;-52
2022/09/23 00:50:07;;;;;;;20.17;12.90;;;;;;;;;;4355150;32;20285;-51
2022/09/23 00:52:35;;;;;;;20.47;11.47;;;;;;;;;;4343664;32;20564;-53
2022/09/23 00:55:07;;;;;;;17.27;10.27;;;;;;;;;;4343140;33;20225;-52
2022/09/23 00:57:36;;;;;;;22.30;13.13;;;;;;;;;;4343095;33;20270;-53
2022/09/23 01:00:05;;;;;;;48.27;21.87;;;;;;;;;;4343126;33;20236;-53
2022/09/23 01:02:32;;;;;;;36.23;20.00;;;;;;;;;;4342730;33;20261;-54
2022/09/23 01:05:03;;;;;;;29.70;14.83;;;;;;;;;;4342999;33;20297;-55
2022/09/23 01:07:30;;;;;;;23.17;12.27;;;;;;;;;;4328973;33;20235;-54
2022/09/23 01:09:59;;;;;;;22.43;13.63;;;;;;;;;;4328284;33;20215;-52
2022/09/23 01:12:45;;;;;;;30.47;15.30;;;;;;;;;;4328393;33;20293;-53
2022/09/23 01:15:18;;;;;;;32.70;15.40;;;;;;;;;;4328445;33;20585;-53
2022/09/23 01:17:53;;;;;;;26.33;15.20;;;;;;;;;;4327969;33;20380;-53
2022/09/23 01:20:41;;;;;;;35.97;19.13;;;;;;;;;;4328770;33;20282;-53
2022/09/23 01:23:28;;;;;;;38.93;21.23;;;;;;;;;;4327952;33;20305;-52
2022/09/23 01:26:19;;;;;;;40.33;20.17;;;;;;;;;;4328293;33;20225;-53
2022/09/23 01:29:04;;;;;;;47.10;22.13;;;;;;;;;;4328295;33;20664;-52
2022/09/23 01:31:42;;;;;;;47.10;20.73;;;;;;;;;;4327798;33;20662;-52
2022/09/23 01:34:13;;;;;;;44.70;21.50;;;;;;;;;;4328450;33;20239;-52
2022/09/23 01:36:48;;;;;;;42.77;19.07;;;;;;;;;;4328397;33;20385;-53
2022/09/23 01:39:20;;;;;;;38.17;19.57;;;;;;;;;;4329418;32;20235;-53
2022/09/23 01:41:57;;;;;;;38.40;16.93;;;;;;;;;;4342490;33;20258;-52
2022/09/23 01:44:32;;;;;;;31.30;17.13;;;;;;;;;;4342447;33;20214;-53
2022/09/23 01:47:09;;;;;;;31.73;16.63;;;;;;;;;;4342129;33;20761;-53
2022/09/23 01:49:43;;;;;;;25.20;15.03;;;;;;;;;;4352130;32;20248;-52
2022/09/23 01:52:17;;;;;;;35.20;16.93;;;;;;;;;;4357534;32;20281;-52
2022/09/23 01:54:52;;;;;;;34.63;17.77;;;;;;;;;;4357627;32;20214;-52
2022/09/23 01:57:24;;;;;;;36.50;17.57;;;;;;;;;;4357327;32;20633;-53
2022/09/23 01:59:56;;;;;;;27.57;13.80;;;;;;;;;;4357601;32;20353;-53
2022/09/23 02:02:30;;;;;;;27.83;14.87;;;;;;;;;;4356882;32;20235;-53
2022/09/23 02:05:03;;;;;;;37.83;14.43;;;;;;;;;;4357312;32;20214;-53
2022/09/23 02:07:36;;;;;;;25.00;12.70;;;;;;;;;;4327728;33;20260;-52
2022/09/23 02:10:11;;;;;;;16.87;12.10;;;;;;;;;;4327869;33;20418;-53
2022/09/23 02:12:41;;;;;;;14.73;10.60;;;;;;;;;;4327501;33;20259;-52
2022/09/23 02:15:13;;;;;;;18.10;9.70;;;;;;;;;;4327219;33;20600;-52
2022/09/23 02:17:47;;;;;;;11.63;8.47;;;;;;;;;;4327781;33;20294;-53
2022/09/23 02:20:19;;;;;;;15.20;9.93;;;;;;;;;;4327789;33;20278;-53
2022/09/23 02:22:52;;;;;;;18.07;10.43;;;;;;;;;;4327709;33;20293;-53
2022/09/23 02:25:23;;;;;;;17.13;10.57;;;;;;;;;;4328018;33;20246;-53
2022/09/23 02:28:00;;;;;;;16.83;10.90;;;;;;;;;;4327697;33;20269;-53
2022/09/23 02:30:31;;;;;;;15.17;9.33;;;;;;;;;;4327325;33;20266;-52
2022/09/23 02:33:03;;;;;;;13.07;8.83;;;;;;;;;;4327644;33;20310;-53
2022/09/23 02:35:35;;;;;;;14.77;7.87;;;;;;;;;;4328443;33;20226;-53
2022/09/23 02:38:13;;;;;;;8.73;7.07;;;;;;;;;;4341709;33;20246;-52
2022/09/23 02:40:46;;;;;;;12.40;7.67;;;;;;;;;;4342462;33;20227;-54
2022/09/23 02:43:18;;;;;;;13.80;8.37;;;;;;;;;;4341926;33;20268;-53
2022/09/23 02:45:45;;;;;;;16.37;9.73;;;;;;;;;;4341731;33;20567;-53
2022/09/23 02:48:18;;;;;;;17.00;10.17;;;;;;;;;;4342079;32;20313;-53
2022/09/23 02:50:46;;;;;;;28.87;14.40;;;;;;;;;;4356823;32;20369;-53
2022/09/23 02:53:14;;;;;;;38.03;17.60;;;;;;;;;;4356328;32;20269;-52
2022/09/23 02:55:41;;;;;;;41.13;20.47;;;;;;;;;;4356214;32;20846;-53
2022/09/23 02:58:12;;;;;;;39.07;19.07;;;;;;;;;;4356579;32;20250;-52
2022/09/23 03:00:50;;;;;;;50.73;21.90;;;;;;;;;;4356865;32;20230;-53
2022/09/23 03:03:35;;;;;;;38.80;19.97;;;;;;;;;;4356858;32;20698;-54
2022/09/23 03:06:15;;;;;;;46.07;19.90;;;;;;;;;;4344424;32;20811;-52
2022/09/23 03:08:49;;;;;;;41.30;20.37;;;;;;;;;;4327222;33;20309;-51
2022/09/23 03:11:17;;;;;;;42.10;20.93;;;;;;;;;;4326604;33;20265;-53
2022/09/23 03:13:57;;;;;;;36.57;19.67;;;;;;;;;;4326853;33;20309;-54
2022/09/23 03:16:32;;;;;;;47.93;19.30;;;;;;;;;;4326890;33;20239;-52
2022/09/23 03:19:13;;;;;;;36.27;17.80;;;;;;;;;;4327370;33;20273;-54
2022/09/23 03:21:45;;;;;;;41.63;19.43;;;;;;;;;;4326805;33;20588;-52
2022/09/23 03:24:14;;;;;;;40.40;18.67;;;;;;;;;;4326456;33;20333;-51
2022/09/23 03:26:46;;;;;;;37.33;18.87;;;;;;;;;;4326215;33;20420;-52
2022/09/23 03:29:15;;;;;;;38.77;18.43;;;;;;;;;;4327045;33;20307;-54
2022/09/23 03:31:43;;;;;;;35.20;17.70;;;;;;;;;;4327617;33;20313;-53
2022/09/23 03:34:17;;;;;;;38.77;17.67;;;;;;;;;;4341732;33;20235;-53
2022/09/23 03:36:52;;;;;;;31.33;18.93;;;;;;;;;;4341502;33;20381;-53
2022/09/23 03:39:31;;;;;;;34.00;16.43;;;;;;;;;;4341418;33;20256;-52
2022/09/23 03:42:02;;;;;;;30.37;16.40;;;;;;;;;;4341072;33;20289;-54
2022/09/23 03:44:29;;;;;;;33.33;16.97;;;;;;;;;;4341488;33;20236;-53
2022/09/23 03:46:59;;;;;;;27.30;15.40;;;;;;;;;;4341250;33;20321;-53
2022/09/23 03:49:31;;;;;;;21.30;12.77;;;;;;;;;;4348740;32;20535;-54
2022/09/23 03:51:59;;;;;;;21.73;12.83;;;;;;;;;;4355869;32;20544;-54
2022/09/23 03:54:28;;;;;;;29.53;15.03;;;;;;;;;;4356180;32;20253;-53
2022/09/23 03:56:56;;;;;;;32.70;16.60;;;;;;;;;;4355561;32;20253;-53
2022/09/23 03:59:23;;;;;;;33.53;17.83;;;;;;;;;;4355597;33;20922;-53
2022/09/23 04:01:50;;;;;;;50.27;22.47;;;;;;;;;;4355146;32;20262;-53
2022/09/23 04:04:17;;;;;;;82.60;34.70;;;;;;;;;;4356352;33;20239;-53
2022/09/23 04:06:46;;;;;;;86.93;37.13;;;;;;;;;;4346463;32;20254;-53
2022/09/23 04:09:13;;;;;;;75.27;35.17;;;;;;;;;;4343923;33;20400;-54
2022/09/23 04:11:40;;;;;;;51.27;29.30;;;;;;;;;;4343834;33;20300;-52
2022/09/23 04:14:07;;;;;;;42.23;24.03;;;;;;;;;;4343849;33;20285;-52
2022/09/23 04:16:34;;;;;;;46.87;25.60;;;;;;;;;;4343472;33;20271;-52
2022/09/23 04:19:01;;;;;;;56.53;25.47;;;;;;;;;;4344091;33;20272;-52
2022/09/23 04:21:30;;;;;;;47.97;25.17;;;;;;;;;;4344029;33;20545;-53
2022/09/23 04:23:58;;;;;;;47.90;25.30;;;;;;;;;;4343611;33;20297;-53
2022/09/23 04:26:25;;;;;;;45.40;22.80;;;;;;;;;;4343510;33;20250;-52
2022/09/23 04:28:53;;;;;;;50.80;26.13;;;;;;;;;;4343428;33;20305;-52
2022/09/23 04:31:21;;;;;;;51.97;27.37;;;;;;;;;;4343245;33;20368;-59
2022/09/23 04:33:48;;;;;;;54.43;25.60;;;;;;;;;;4343356;33;20730;-52
2022/09/23 04:36:15;;;;;;;35.77;19.87;;;;;;;;;;4343325;33;20606;-52
2022/09/23 04:38:44;;;;;;;25.77;15.53;;;;;;;;;;4343352;33;20754;-52
2022/09/23 04:41:13;;;;;;;31.07;16.30;;;;;;;;;;4343156;33;20264;-53
2022/09/23 04:43:40;;;;;;;30.63;17.53;;;;;;;;;;4343026;33;20255;-52
2022/09/23 04:46:09;;;;;;;44.53;18.13;;;;;;;;;;4342791;33;20254;-53
2022/09/23 04:48:37;;;;;;;33.70;17.37;;;;;;;;;;4346244;32;20261;-52
2022/09/23 04:51:06;;;;;;;32.57;16.77;;;;;;;;;;4357615;32;20347;-53
2022/09/23 04:53:33;;;;;;;39.67;15.67;;;;;;;;;;4358091;32;20340;-53
2022/09/23 04:56:04;;;;;;;25.20;14.70;;;;;;;;;;4357753;32;20260;-51
2022/09/23 04:58:33;;;;;;;24.17;14.20;;;;;;;;;;4357604;32;20290;-54
2022/09/23 05:01:09;;;;;;;25.23;13.80;;;;;;;;;;4356991;32;20296;-53
2022/09/23 05:03:36;;;;;;;30.77;14.93;;;;;;;;;;4358099;32;20267;-53
2022/09/23 05:06:03;;;;;;;28.63;15.20;;;;;;;;;;4345089;32;20427;-53
2022/09/23 05:08:29;;;;;;;32.67;16.50;;;;;;;;;;4328569;33;20222;-52
2022/09/23 05:10:57;;;;;;;42.60;15.37;;;;;;;;;;4327451;33;20231;-53
2022/09/23 05:13:24;;;;;;;32.67;16.27;;;;;;;;;;4327746;33;20782;-53
2022/09/23 05:15:58;;;;;;;30.93;14.23;;;;;;;;;;4327751;33;20231;-53
2022/09/23 05:18:25;;;;;;;22.57;13.03;;;;;;;;;;4327914;33;20273;-52
2022/09/23 05:20:55;;;;;;;28.13;11.40;;;;;;;;;;4327544;33;20251;-53
2022/09/23 05:23:22;;;;;;;17.60;9.60;;;;;;;;;;4328533;33;20605;-53
2022/09/23 05:25:56;;;;;;;19.33;10.83;;;;;;;;;;4338541;32;20302;-52
2022/09/23 05:28:23;;;;;;;19.40;10.40;;;;;;;;;;4343269;33;20301;-53
2022/09/23 05:30:50;;;;;;;13.90;10.33;;;;;;;;;;4342361;33;20280;-53
2022/09/23 05:33:18;;;;;;;13.30;8.87;;;;;;;;;;4342232;33;20239;-53
2022/09/23 05:35:47;;;;;;;15.93;9.87;;;;;;;;;;4342090;33;20305;-54
2022/09/23 05:38:16;;;;;;;16.37;9.77;;;;;;;;;;4342417;33;20330;-53
2022/09/23 05:40:43;;;;;;;19.87;10.60;;;;;;;;;;4342401;33;20832;-54
2022/09/23 05:43:10;;;;;;;24.77;11.37;;;;;;;;;;4336652;33;20226;-53
2022/09/23 05:45:37;;;;;;;17.17;12.43;;;;;;;;;;4342001;33;20253;-53
2022/09/23 05:48:04;;;;;;;25.10;13.60;;;;;;;;;;4341821;33;20684;-54
2022/09/23 05:50:32;;;;;;;21.67;14.20;;;;;;;;;;4356693;32;20238;-55
2022/09/23 05:52:59;;;;;;;24.37;14.77;;;;;;;;;;4357246;32;20276;-53
2022/09/23 05:55:27;;;;;;;24.17;14.67;;;;;;;;;;4357366;32;20268;-52
2022/09/23 05:57:54;;;;;;;21.70;15.70;;;;;;;;;;4357201;32;20321;-53
2022/09/23 06:00:21;;;;;;;25.93;13.77;;;;;;;;;;4356350;32;20222;-53
2022/09/23 06:02:48;;;;;;;19.97;13.23;;;;;;;;;;4356909;32;20653;-54
2022/09/23 06:05:16;;;;;;;28.23;14.77;;;;;;;;;;4355113;32;20281;-54
2022/09/23 06:07:44;;;;;;;24.83;13.23;;;;;;;;;;4341406;33;20335;-53
2022/09/23 06:10:12;;;;;;;34.33;16.47;;;;;;;;;;4341655;33;20740;-54
2022/09/23 06:12:39;;;;;;;22.43;12.93;;;;;;;;;;4342521;33;20266;-53
2022/09/23 06:15:07;;;;;;;24.90;15.53;;;;;;;;;;4341568;33;20308;-53
2022/09/23 06:17:34;;;;;;;26.13;15.83;;;;;;;;;;4341901;33;20306;-52
2022/09/23 06:20:01;;;;;;;33.10;17.10;;;;;;;;;;4342011;33;20222;-53
2022/09/23 06:22:28;;;;;;;30.23;17.80;;;;;;;;;;4341702;33;20668;-53
2022/09/23 06:24:56;;;;;;;36.30;18.77;;;;;;;;;;4341747;33;20248;-54
2022/09/23 06:27:23;;;;;;;37.07;19.40;;;;;;;;;;4341832;32;20340;-53
2022/09/23 06:29:51;;;;;;;33.13;19.03;;;;;;;;;;4340879;33;20583;-53
2022/09/23 06:32:19;;;;;;;34.70;17.70;;;;;;;;;;4341724;33;20325;-52
2022/09/23 06:34:47;;;;;;;34.87;18.47;;;;;;;;;;4341704;33;20242;-53
2022/09/23 06:37:14;;;;;;;30.33;17.70;;;;;;;;;;4341293;33;20363;-53
2022/09/23 06:39:41;;;;;;;23.20;14.83;;;;;;;;;;4341623;33;20435;-54
2022/09/23 06:42:09;;;;;;;38.00;16.97;;;;;;;;;;4341603;33;20692;-53
2022/09/23 06:44:36;;;;;;;27.17;15.07;;;;;;;;;;4340847;33;20657;-52
2022/09/23 06:47:03;;;;;;;34.40;15.47;;;;;;;;;;4340602;33;20377;-53
2022/09/23 06:49:30;;;;;;;25.07;15.37;;;;;;;;;;4349450;32;20262;-53
2022/09/23 06:51:57;;;;;;;29.53;16.20;;;;;;;;;;4355627;32;20318;-54
2022/09/23 06:54:27;;;;;;;20.47;14.47;;;;;;;;;;4356146;32;20312;-53
2022/09/23 06:56:53;;;;;;;30.33;17.50;;;;;;;;;;4355862;32;20654;-52
2022/09/23 06:59:23;;;;;;;37.67;17.23;;;;;;;;;;4355578;32;20227;-54
2022/09/23 07:01:50;;;;;;;22.27;17.87;;;;;;;;;;4356072;32;20280;-54
2022/09/23 07:04:17;;;;;;;31.37;17.40;;;;;;;;;;4356051;32;20277;-53
2022/09/23 07:06:44;;;;;;;31.47;17.17;;;;;;;;;;4334779;32;20343;-52
2022/09/23 07:09:11;;;;;;;22.97;15.13;;;;;;;;;;4326623;33;20261;-54
2022/09/23 07:11:38;;;;;;;24.27;15.63;;;;;;;;;;4326538;33;20243;-53
2022/09/23 07:14:06;;;;;;;31.53;14.93;;;;;;;;;;4326075;33;20309;-52
2022/09/23 07:16:34;;;;;;;22.27;12.57;;;;;;;;;;4326151;33;20676;-54
2022/09/23 07:19:01;;;;;;;19.67;13.30;;;;;;;;;;4326707;33;20289;-53
2022/09/23 07:21:28;;;;;;;18.83;11.13;;;;;;;;;;4326239;33;20703;-53
2022/09/23 07:23:56;;;;;;;19.00;11.20;;;;;;;;;;4325810;33;20255;-53
2022/09/23 07:26:24;;;;;;;16.30;10.47;;;;;;;;;;4340409;33;20297;-53
2022/09/23 07:28:55;;;;;;;16.63;10.40;;;;;;;;;;4340703;33;20344;-53
2022/09/23 07:31:23;;;;;;;21.00;9.57;;;;;;;;;;4340702;33;20289;-53
2022/09/23 07:33:56;;;;;;;14.93;9.60;;;;;;;;;;4341225;33;20302;-53
2022/09/23 07:36:23;;;;;;;15.03;8.57;;;;;;;;;;4340780;33;20250;-54
2022/09/23 07:38:50;;;;;;;16.40;8.67;;;;;;;;;;4340812;33;20332;-53
2022/09/23 07:41:19;;;;;;;11.30;7.47;;;;;;;;;;4340508;33;20310;-53
2022/09/23 07:43:46;;;;;;;11.83;8.87;;;;;;;;;;4340790;33;20226;-53
2022/09/23 07:46:15;;;;;;;13.93;8.47;;;;;;;;;;4340522;33;20290;-52
2022/09/23 07:48:42;;;;;;;8.20;6.40;;;;;;;;;;4343843;32;20238;-52
2022/09/23 07:51:13;;;;;;;14.33;6.77;;;;;;;;;;4355401;32;20242;-53
2022/09/23 07:53:40;;;;;;;14.97;7.30;;;;;;;;;;4355700;32;20267;-52
2022/09/23 07:56:07;;;;;;;11.63;8.40;;;;;;;;;;4355189;32;20245;-53
2022/09/23 07:58:34;;;;;;;11.40;6.00;;;;;;;;;;4354428;32;20305;-52
2022/09/23 08:01:03;;;;;;;5.47;4.93;;;;;;;;;;4355002;32;20311;-53
2022/09/23 08:03:30;;;;;;;8.80;5.03;;;;;;;;;;4355671;33;20276;-53
2022/09/23 08:06:04;;;;;;;8.77;5.67;;;;;;;;;;4349648;33;20276;-52
2022/09/23 08:08:33;;;;;;;7.07;6.10;;;;;;;;;;4340952;33;20290;-52
2022/09/23 08:11:02;;;;;;;6.10;4.70;;;;;;;;;;4340431;33;20231;-53
2022/09/23 08:13:29;;;;;;;5.97;4.27;;;;;;;;;;4339652;33;20238;-52
2022/09/23 08:15:57;;;;;;;5.93;3.30;;;;;;;;;;4340516;33;20259;-53
2022/09/23 08:18:24;;;;;;;5.73;4.10;;;;;;;;;;4340611;33;20222;-54
2022/09/23 08:20:51;;;;;;;4.30;3.50;;;;;;;;;;4341121;33;20721;-54
2022/09/23 08:23:19;;;;;;;4.97;3.00;;;;;;;;;;4342922;33;20242;-53
2022/09/23 08:25:48;;;;;;;3.27;2.60;;;;;;;;;;4341998;33;20309;-53
2022/09/23 08:28:15;;;;;;;7.40;2.50;;;;;;;;;;4341688;33;20314;-52
2022/09/23 08:30:43;;;;;;;4.37;2.73;;;;;;;;;;4342615;33;20215;-53
2022/09/23 08:33:10;;;;;;;5.83;2.97;;;;;;;;;;4342884;33;20222;-54
2022/09/23 08:35:37;;;;;;;4.37;2.60;;;;;;;;;;4342862;33;20272;-54
2022/09/23 08:38:04;;;;;;;5.40;2.20;;;;;;;;;;4342227;33;20717;-52
2022/09/23 08:40:33;;;;;;;3.33;2.50;;;;;;;;;;4342359;33;20696;-52
2022/09/23 08:43:04;;;;;;;7.67;3.90;;;;;;;;;;4342187;33;20246;-53
2022/09/23 08:45:31;;;;;;;4.77;2.63;;;;;;;;;;4342385;33;20261;-53
2022/09/23 08:48:05;;;;;;;9.40;3.33;;;;;;;;;;4341863;33;20270;-52
2022/09/23 08:50:40;;;;;;;3.43;2.73;;;;;;;;;;4357008;33;20273;-58
2022/09/23 08:53:15;;;;;;;3.47;2.87;;;;;;;;;;4359011;32;20261;-53
2022/09/23 08:55:46;;;;;;;3.07;2.33;;;;;;;;;;4360285;32;20605;-53
2022/09/23 08:58:32;;;;;;;3.70;2.30;;;;;;;;;;4359889;32;20250;-54
2022/09/23 09:01:07;;;;;;;4.47;2.70;;;;;;;;;;4359926;32;20242;-53
2022/09/23 09:03:38;;;;;;;7.40;2.50;;;;;;;;;;4360314;32;20305;-54
2022/09/23 09:06:06;;;;;;;3.03;2.50;;;;;;;;;;4347003;32;20369;-53
2022/09/23 09:08:37;;;;;;;2.50;2.30;;;;;;;;;;4330478;33;20301;-52
2022/09/23 09:11:06;;;;;;;3.03;2.47;;;;;;;;;;4341799;32;20237;-53
2022/09/23 09:13:42;;;;;;;3.83;2.53;;;;;;;;;;4344714;33;20294;-54
2022/09/23 09:16:24;;;;;;;3.97;2.57;;;;;;;;;;4344875;33;20350;-53
2022/09/23 09:18:54;;;;;;;2.45;2.05;;;;;;;;;;4330087;33;20287;-53
2022/09/23 09:21:24;;;;;;;4.20;2.47;;;;;;;;;;4330054;33;20269;-53
2022/09/23 09:23:54;;;;;;;5.90;2.20;;;;;;;;;;4330272;33;20223;-54
2022/09/23 09:26:23;;;;;;;4.73;2.20;;;;;;;;;;4329808;33;20707;-52
2022/09/23 09:28:57;;;;;;;2.45;2.25;;;;;;;;;;4329673;33;20245;-52
2022/09/23 09:31:29;;;;;;;3.50;2.53;;;;;;;;;;4330079;33;20247;-52
2022/09/23 09:34:00;;;;;;;4.50;2.30;;;;;;;;;;4330067;33;20377;-53
2022/09/23 09:36:36;;;;;;;1.87;1.77;;;;;;;;;;4329405;33;20275;-53
2022/09/23 09:39:03;;;;;;;3.33;2.83;;;;;;;;;;4329799;33;20227;-52
2022/09/23 09:41:30;;;;;;;2.90;2.17;;;;;;;;;;4329600;33;20261;-54
2022/09/23 09:44:02;;;;;;;2.22;1.75;;;;;;;;;;4329964;33;20686;-53
2022/09/23 09:46:45;;;;;;;5.78;1.90;;;;;;;;;;4329948;33;20611;-53
2022/09/23 09:49:23;;;;;;;2.10;1.90;;;;;;;;;;4342417;32;20340;-52
2022/09/23 09:52:14;;;;;;;3.70;1.67;;;;;;;;;;4359397;32;20253;-52
2022/09/23 09:54:42;;;;;;;5.70;2.10;;;;;;;;;;4358576;32;20679;-53
2022/09/23 09:57:18;;;;;;;2.40;1.90;;;;;;;;;;4357250;32;20282;-51
2022/09/23 09:59:46;;;;;;;3.55;2.33;;;;;;;;;;4357575;32;20360;-53
2022/09/23 10:02:22;;;;;;;3.33;2.22;;;;;;;;;;4358842;32;20266;-53
2022/09/23 10:04:57;;;;;;;7.57;2.25;;;;;;;;;;4358356;32;20222;-53
2022/09/23 10:07:27;;;;;;;3.30;3.00;;;;;;;;;;4344003;32;20246;-53
2022/09/23 10:09:54;;;;;;;6.30;2.55;;;;;;;;;;4344100;33;20254;-53
2022/09/23 10:12:23;;;;;;;2.78;2.17;;;;;;;;;;4343963;33;20298;-54
2022/09/23 10:14:55;;;;;;;2.78;1.98;;;;;;;;;;4344219;33;20237;-54
2022/09/23 10:17:24;;;;;;;2.75;1.98;;;;;;;;;;4344081;33;20312;-53
2022/09/23 10:19:59;;;;;;;2.37;2.00;;;;;;;;;;4344171;33;20286;-54
2022/09/23 10:22:31;;;;;;;3.17;2.50;;;;;;;;;;4343898;33;20284;-54
2022/09/23 10:25:02;;;;;;;3.92;1.75;;;;;;;;;;4344018;33;20206;-53
2022/09/23 10:27:31;;;;;;;5.78;2.45;;;;;;;;;;4343664;33;20610;-52
2022/09/23 10:30:02;;;;;;;2.35;2.15;;;;;;;;;;4343926;33;20233;-54
2022/09/23 10:32:31;;;;;;;7.93;2.08;;;;;;;;;;4343937;33;20231;-53
2022/09/23 10:35:03;;;;;;;4.10;1.45;;;;;;;;;;4343908;33;20236;-53
2022/09/23 10:37:34;;;;;;;3.53;2.58;;;;;;;;;;4343835;33;20270;-53
2022/09/23 10:49:36;;;;;;;2.62;2.12;;;;;;;;;;4349275;32;20347;-54
2022/09/23 10:52:24;;;;;;;3.97;2.00;;;;;;;;;;4304004;32;20690;-53
2022/09/23 10:55:04;;;;;;;2.78;2.20;;;;;;;;;;4358793;32;20258;-52
2022/09/23 10:57:45;;;;;;;2.50;2.25;;;;;;;;;;4358372;32;20275;-52
2022/09/23 11:00:22;;;;;;;2.20;1.98;;;;;;;;;;4359076;32;20206;-53
2022/09/23 11:03:09;;;;;;;2.10;1.70;;;;;;;;;;4350559;32;20296;-51
2022/09/23 11:05:45;;;;;;;9.07;2.00;;;;;;;;;;4343753;33;20218;-52
2022/09/23 11:08:35;;;;;;;2.03;1.80;;;;;;;;;;4343709;33;20662;-53
2022/09/23 11:11:19;;;;;;;2.00;1.85;;;;;;;;;;4343097;33;20664;-53
2022/09/23 11:14:17;;;;;;;2.45;1.50;;;;;;;;;;4343559;33;20246;-53
2022/09/23 11:16:57;;;;;;;3.05;1.58;;;;;;;;;;4330634;33;20250;-53
2022/09/23 11:19:47;;;;;;;2.65;1.83;;;;;;;;;;4343768;33;20219;-54
2022/09/23 11:22:36;;;;;;;3.85;1.30;;;;;;;;;;4343359;33;20302;-53
2022/09/23 11:25:25;;;;;;;2.05;1.55;;;;;;;;;;4343119;33;20644;-54
2022/09/23 11:28:16;;;;;;;2.28;1.67;;;;;;;;;;4342852;33;20243;-54
2022/09/23 11:30:53;;;;;;;6.05;1.77;;;;;;;;;;4343536;33;20273;-54
2022/09/23 11:33:34;;;;;;;1.90;1.40;;;;;;;;;;4343788;33;20206;-52
2022/09/23 11:36:06;;;;;;;1.62;1.50;;;;;;;;;;4343234;33;20210;-52
2022/09/23 11:38:37;;;;;;;1.70;1.50;;;;;;;;;;4343001;33;20254;-54
2022/09/23 11:41:17;;;;;;;1.77;1.65;;;;;;;;;;4343349;33;20236;-53
2022/09/23 11:43:51;;;;;;;1.50;1.33;;;;;;;;;;4343132;33;20372;-53
2022/09/23 11:46:29;;;;;;;6.60;1.52;;;;;;;;;;4343199;33;20312;-54
2022/09/23 11:49:02;;;;;;;1.40;1.30;;;;;;;;;;4348189;32;20263;-54
2022/09/23 11:51:36;;;;;;;2.62;1.70;;;;;;;;;;4357870;32;20230;-53
2022/09/23 11:54:06;;;;;;;1.58;1.37;;;;;;;;;;4358141;32;20229;-53
2022/09/23 11:56:37;;;;;;;1.87;1.60;;;;;;;;;;4357920;32;20234;-52
2022/09/23 11:59:10;;;;;;;2.47;1.70;;;;;;;;;;4349690;32;20253;-53
2022/09/23 12:01:42;;;;;;;1.90;1.60;;;;;;;;;;4343198;33;20660;-52
2022/09/23 12:04:17;;;;;;;2.47;1.55;;;;;;;;;;4343458;33;20207;-53
2022/09/23 12:06:50;;;;;;;2.60;1.90;;;;;;;;;;4341825;33;20686;-53
2022/09/23 12:09:22;;;;;;;4.50;1.50;;;;;;;;;;4342997;33;20278;-52
2022/09/23 12:11:59;;;;;;;1.55;1.40;;;;;;;;;;4342492;33;20238;-53
2022/09/23 12:14:37;;;;;;;2.25;2.05;;;;;;;;;;4343093;33;20365;-54
2022/09/23 12:17:19;;;;;;;2.95;2.00;;;;;;;;;;4342734;33;20231;-53
2022/09/23 12:20:13;;;;;;;3.47;2.55;;;;;;;;;;4343386;33;20308;-54
2022/09/23 12:22:53;;;;;;;1.92;1.83;;;;;;;;;;4342999;33;20226;-54
2022/09/23 12:25:39;;;;;;;6.43;2.72;;;;;;;;;;4343143;33;20211;-54
2022/09/23 12:28:12;;;;;;;4.15;3.10;;;;;;;;;;4343124;33;20488;-53
2022/09/23 12:30:41;;;;;;;3.45;2.90;;;;;;;;;;4345996;33;20214;-52
2022/09/23 12:33:16;;;;;;;4.22;2.58;;;;;;;;;;4344533;33;20254;-54
2022/09/23 12:35:45;;;;;;;3.35;2.90;;;;;;;;;;4343522;33;20373;-53
2022/09/23 12:38:19;;;;;;;3.97;3.00;;;;;;;;;;4345449;33;20218;-54
2022/09/23 12:40:47;;;;;;;3.83;3.40;;;;;;;;;;4345593;33;20308;-52
2022/09/23 12:43:19;;;;;;;3.75;2.47;;;;;;;;;;4345068;33;20242;-53
2022/09/23 12:45:46;;;;;;;4.87;2.30;;;;;;;;;;4345774;33;20383;-54
2022/09/23 12:48:46;;;;;;;4.57;3.05;;;;;;;;;;4345756;32;20317;-52
2022/09/23 12:51:17;;;;;;;1.85;1.75;;;;;;;;;;4360170;32;20254;-52
2022/09/23 12:54:21;;;;;;;3.40;1.95;;;;;;;;;;4360446;32;20706;-53
2022/09/23 12:57:04;;;;;;;10.55;2.15;;;;;;;;;;4330348;33;20254;-53
2022/09/23 12:59:52;;;;;;;4.28;3.10;;;;;;;;;;4330682;33;20652;-53
2022/09/23 13:02:35;;;;;;;3.70;2.87;;;;;;;;;;4335945;33;20262;-52
2022/09/23 13:08:06;;;;;;;5.28;2.70;;;;;;;;;;4330236;33;20313;-54
2022/09/23 13:10:38;;;;;;;3.50;2.70;;;;;;;;;;4330723;33;20246;-54
2022/09/23 13:13:09;;;;;;;3.35;3.05;;;;;;;;;;4330290;33;20509;-53
2022/09/23 13:15:37;;;;;;;5.60;3.83;;;;;;;;;;4330517;33;20290;-53
2022/09/23 13:18:23;;;;;;;2.65;2.45;;;;;;;;;;4330111;33;20281;-53
2022/09/23 13:20:52;;;;;;;4.60;3.62;;;;;;;;;;4330639;33;20759;-54
2022/09/23 13:23:23;;;;;;;3.42;3.12;;;;;;;;;;4330309;33;20629;-54
2022/09/23 13:25:52;;;;;;;6.82;2.90;;;;;;;;;;4330533;33;20703;-53
2022/09/23 13:28:39;;;;;;;3.70;3.28;;;;;;;;;;4329546;33;20219;-53
2022/09/23 13:31:12;;;;;;;3.87;2.72;;;;;;;;;;4329982;33;20261;-53
2022/09/23 13:33:42;;;;;;;3.20;2.80;;;;;;;;;;4330201;33;20281;-54
2022/09/23 13:36:12;;;;;;;3.17;2.87;;;;;;;;;;4330222;33;20247;-53
2022/09/23 13:38:39;;;;;;;3.55;3.05;;;;;;;;;;4329839;33;20277;-53
2022/09/23 13:41:12;;;;;;;6.70;3.20;;;;;;;;;;4330020;33;20660;-53
2022/09/23 13:43:43;;;;;;;2.78;2.28;;;;;;;;;;4330311;33;20231;-53
2022/09/23 13:46:14;;;;;;;1.92;1.83;;;;;;;;;;4330140;33;20301;-52
2022/09/23 13:48:44;;;;;;;4.95;1.90;;;;;;;;;;4336638;32;20254;-53
2022/09/23 13:51:16;;;;;;;2.22;2.03;;;;;;;;;;4353974;32;20223;-53
2022/09/23 13:53:42;;;;;;;2.65;2.40;;;;;;;;;;4344959;33;20207;-53
2022/09/23 13:56:15;;;;;;;3.30;2.65;;;;;;;;;;4344529;33;20686;-54
2022/09/23 13:58:43;;;;;;;2.85;2.65;;;;;;;;;;4344576;33;20561;-53
2022/09/23 14:01:22;;;;;;;4.50;3.20;;;;;;;;;;4344191;33;20234;-54
2022/09/23 14:03:50;;;;;;;3.15;2.85;;;;;;;;;;4344192;33;20597;-54
2022/09/23 14:06:18;;;;;;;3.50;3.20;;;;;;;;;;4343605;33;20317;-53
2022/09/23 14:08:47;;;;;;;2.42;2.22;;;;;;;;;;4344346;33;20229;-54
2022/09/23 14:11:16;;;;;;;4.43;3.28;;;;;;;;;;4344062;33;20253;-53
2022/09/23 14:13:46;;;;;;;3.10;2.72;;;;;;;;;;4344393;33;20257;-54
2022/09/23 14:16:15;;;;;;;7.37;4.80;;;;;;;;;;4344480;33;20270;-54
2022/09/23 14:18:45;;;;;;;9.82;4.47;;;;;;;;;;4344532;33;20235;-54
2022/09/23 14:21:29;;;;;;;8.93;4.97;;;;;;;;;;4343973;33;20584;-53
2022/09/23 14:23:56;;;;;;;13.23;5.35;;;;;;;;;;4344188;33;20740;-54
2022/09/23 14:26:24;;;;;;;8.15;4.00;;;;;;;;;;4343714;33;20246;-53
2022/09/23 14:28:52;;;;;;;16.23;7.40;;;;;;;;;;4344335;33;20278;-54
2022/09/23 14:31:19;;;;;;;11.40;5.45;;;;;;;;;;4344194;33;20262;-53
2022/09/23 14:33:46;;;;;;;6.40;4.05;;;;;;;;;;4344479;33;20680;-53
2022/09/23 14:39:02;;;;;;;6.00;3.97;;;;;;;;;;4343266;33;20631;-54
2022/09/23 14:41:35;;;;;;;5.20;4.70;;;;;;;;;;4343757;33;20587;-53
2022/09/23 14:44:04;;;;;;;7.72;4.97;;;;;;;;;;4344551;33;20260;-54
2022/09/23 14:46:33;;;;;;;5.93;5.18;;;;;;;;;;4344338;33;20310;-53
2022/09/23 14:49:04;;;;;;;7.82;7.00;;;;;;;;;;4348379;32;20325;-54
2022/09/23 14:51:48;;;;;;;10.70;8.98;;;;;;;;;;4358301;32;20227;-53
2022/09/23 14:54:36;;;;;;;7.43;6.62;;;;;;;;;;4356617;32;20377;-53
2022/09/23 14:57:18;;;;;;;9.27;6.12;;;;;;;;;;4343360;33;20257;-54
2022/09/23 14:59:52;;;;;;;10.15;7.20;;;;;;;;;;4344072;33;20582;-53
2022/09/23 15:02:31;;;;;;;7.35;6.05;;;;;;;;;;4344124;33;20586;-54
2022/09/23 15:05:17;;;;;;;5.53;4.87;;;;;;;;;;4343996;33;20310;-54
2022/09/23 15:07:48;;;;;;;6.40;5.05;;;;;;;;;;4328947;33;20316;-54
2022/09/23 15:10:22;;;;;;;5.78;4.05;;;;;;;;;;4328834;33;20571;-53